Latest Weather Observations for Horn Island

IDQ60801

Issued at 12:52 pm EST Saturday 25 May 2024 (issued every 10 minutes, with the page automatically refreshed every 10 minutes)

About weather observations | Map of weather stations | Latest weather observations for QLD | Other Formats
Station Details ID: 027058 Name: HORN ISLAND Lat: -10.58 Lon: 142.29 Height: 4.0 m
Data from the previous 72 hours. | See also: Recent months at Horn Island
Date/Time
EST
Temp
°C
App
Temp
°C
Dew
Point
°C
Rel
Hum
%
Delta-T
°C
Wind Press
QNH
hPa
Press
MSL
hPa
Rain since
9am
mm
Dir  Spd
km/h
Gust
km/h
Spd
kts
Gust
kts
25/12:30pm 29.5 29.9 25.3 78 3.0 SE 33 46 18 25 1012.2 1012.2 0.0
25/12:00pm 29.5 29.2 24.8 76 3.3 SE 35 48 19 26 1012.5 1012.5 0.0
25/11:30am 29.5 29.5 25.3 78 3.0 SE 35 48 19 26 1012.8 1012.8 0.0
25/11:00am 29.0 28.7 24.8 78 2.9 SE 35 50 19 27 1013.0 1013.0 0.0
25/10:30am 28.8 28.5 24.8 79 2.8 SE 35 48 19 26 1013.3 1013.3 0.0
25/10:00am 28.2 28.6 24.4 80 2.6 SE 30 43 16 23 1013.2 1013.2 0.0
25/09:56am 28.2 28.3 24.6 81 2.5 SE 32 43 17 23 1013.2 1013.2 0.0
25/09:45am 27.9 27.8 24.5 82 2.4 SE 33 44 18 24 1013.1 1013.1 0.0
25/09:30am 27.4 26.9 24.5 84 2.0 SE 35 48 19 26 1013.0 1013.0 0.0
25/09:00am 27.6 27.5 24.2 82 2.4 SE 32 43 17 23 1013.0 1013.0 0.0
25/08:30am 27.5 27.9 24.4 83 2.1 SE 30 43 16 23 1012.5 1012.5 0.0
25/08:00am 26.9 28.5 24.5 87 1.7 SE 24 37 13 20 1012.2 1012.2 0.0
25/07:30am 26.6 27.6 24.1 86 1.7 SE 26 39 14 21 1011.9 1011.9 0.0
25/07:28am 26.6 27.6 24.1 86 1.7 SE 26 39 14 21 1011.9 1011.9 0.0
25/07:03am 26.2 26.8 24.1 88 1.4 SE 28 44 15 24 1011.8 1011.8 0.0
25/07:00am 26.4 27.4 24.1 87 1.6 SE 26 41 14 22 1011.8 1011.8 0.0
25/06:30am 26.4 27.6 23.9 86 1.7 SE 24 37 13 20 1011.4 1011.4 0.0
25/06:00am 26.2 26.6 23.7 86 1.7 SE 28 41 15 22 1011.3 1011.3 0.0
25/05:30am 26.4 27.7 24.1 87 1.6 SE 24 33 13 18 1010.9 1010.9 0.0
25/05:00am 26.3 26.8 24.0 87 1.6 SE 28 39 15 21 1011.0 1011.0 0.0
25/04:58am 26.3 26.3 23.8 86 1.7 SE 30 43 16 23 1011.0 1011.0 0.0
25/04:30am 26.3 26.8 24.0 87 1.6 SE 28 39 15 21 1010.9 1010.9 0.0
25/04:18am 26.3 27.0 24.3 89 1.4 SE 28 39 15 21 1010.9 1010.9 0.0
25/04:00am 26.2 26.8 24.1 88 1.4 SE 28 41 15 22 1010.8 1010.8 0.0
25/03:46am 26.4 26.6 24.1 87 1.6 SE 30 48 16 26 1010.8 1010.8 0.0
25/03:30am 26.3 26.4 24.0 87 1.6 SE 30 43 16 23 1010.8 1010.8 0.0
25/03:07am 26.3 26.8 24.0 87 1.6 SE 28 46 15 25 1010.9 1010.9 0.0
25/03:00am 26.4 26.2 24.1 87 1.6 SE 32 43 17 23 1011.0 1011.0 0.0
25/02:39am 26.5 27.1 24.2 87 1.6 SE 28 46 15 25 1011.1 1011.1 0.0
25/02:30am 26.4 27.0 24.1 87 1.6 SE 28 39 15 21 1011.1 1011.1 0.0
25/02:23am 26.4 26.6 24.1 87 1.6 SE 30 41 16 22 1011.1 1011.1 0.0
25/02:00am 26.2 25.9 23.9 87 1.6 SE 32 41 17 22 1011.4 1011.4 0.0
25/01:30am 26.3 27.2 24.0 87 1.6 SE 26 41 14 22 1011.8 1011.8 0.0
25/01:11am 26.2 26.8 24.1 88 1.4 SE 28 44 15 24 1012.0 1012.0 0.0
25/01:00am 26.2 26.7 23.9 87 1.6 SE 28 52 15 28 1012.1 1012.1 0.0
25/12:52am 26.4 26.2 24.1 87 1.6 SE 32 52 17 28 1012.2 1012.2 0.0
25/12:46am 26.3 26.4 24.0 87 1.6 SE 30 41 16 22 1012.2 1012.2 0.0
25/12:30am 26.2 27.2 24.1 88 1.4 SE 26 39 14 21 1012.3 1012.3 0.0
25/12:00am 26.1 27.0 24.0 88 1.4 SE 26 43 14 23 1012.4 1012.4 0.0
 
Date/Time
EST
Temp
°C
App
Temp
°C
Dew
Point
°C
Rel
Hum
%
Delta-T
°C
Wind Press
QNH
hPa
Press
MSL
hPa
Rain since
9am
mm
Dir  Spd
km/h
Gust
km/h
Spd
kts
Gust
kts
24/11:30pm 26.0 26.6 24.2 90 1.2 SE 28 39 15 21 1012.5 1012.5 0.0
24/11:29pm 26.0 26.6 24.2 90 1.2 SE 28 39 15 21 1012.5 1012.5 0.0
24/11:12pm 25.7 27.2 24.3 92 1.0 SE 24 37 13 20 1012.4 1012.4 0.0
24/11:00pm 25.7 27.2 24.3 92 1.0 SE 24 35 13 19 1012.5 1012.5 0.0
24/10:51pm 25.8 27.3 24.4 92 1.0 SE 24 35 13 19 1012.6 1012.6 0.0
24/10:36pm 25.7 26.7 24.1 91 1.1 SSE 26 35 14 19 1012.5 1012.5 0.0
24/10:30pm 26.3 27.7 24.2 88 1.4 SE 24 35 13 19 1012.5 1012.5 0.0
24/10:25pm 26.3 27.3 24.2 88 1.4 SE 26 39 14 21 1012.5 1012.5 0.0
24/10:23pm 26.3 27.3 24.2 88 1.4 SE 26 39 14 21 1012.5 1012.5 0.0
24/10:00pm 26.0 26.1 23.9 88 1.4 SE 30 46 16 25 1012.4 1012.4 0.0
24/09:30pm 26.4 27.4 24.2 88 1.5 SE 26 39 14 21 1012.0 1012.0 0.0
24/09:01pm 26.5 27.1 24.2 87 1.6 SE 28 48 15 26 1012.0 1012.0 0.0
24/09:00pm 26.6 27.7 24.3 87 1.6 SE 26 37 14 20 1011.9 1011.9 0.0
24/08:30pm 26.6 27.2 24.1 86 1.7 SE 28 43 15 23 1011.5 1011.5 0.0
24/08:17pm 26.4 27.7 24.1 87 1.6 SE 24 35 13 19 1011.4 1011.4 0.0
24/08:00pm 26.4 27.4 24.2 88 1.5 SE 26 37 14 20 1011.2 1011.2 0.0
24/07:36pm 26.3 27.4 24.3 89 1.4 SE 26 43 14 23 1011.0 1011.0 0.0
24/07:30pm 26.3 27.0 24.3 89 1.4 SE 28 41 15 22 1010.9 1010.9 0.0
24/07:16pm 26.5 27.5 24.2 87 1.6 SE 26 39 14 21 1010.6 1010.6 0.0
24/07:00pm 26.6 27.2 24.1 86 1.7 SE 28 43 15 23 1010.5 1010.5 0.0
24/06:30pm 26.6 27.3 24.3 87 1.6 SE 28 43 15 23 1010.4 1010.4 0.0
24/06:00pm 26.8 27.2 24.5 87 1.6 SE 30 43 16 23 1010.1 1010.1 0.0
24/05:40pm 26.8 27.7 24.6 88 1.5 SE 28 35 15 19 1009.8 1009.8 0.0
24/05:30pm 26.8 27.7 24.6 88 1.5 SE 28 41 15 22 1009.8 1009.8 0.0
24/05:00pm 28.2 29.0 25.0 83 2.2 ESE 30 43 16 23 1009.3 1009.3 0.0
24/04:30pm 28.2 28.7 24.6 81 2.5 SE 30 43 16 23 1009.4 1009.4 0.0
24/04:00pm 28.2 28.7 24.6 81 2.5 SE 30 44 16 24 1009.3 1009.3 0.0
24/03:30pm 28.6 28.7 24.6 79 2.8 SE 32 46 17 25 1009.2 1009.2 0.0
24/03:00pm 29.3 29.7 25.1 78 3.0 SE 32 44 17 24 1009.4 1009.4 0.0
24/02:37pm 29.4 29.9 25.2 78 3.0 SE 32 50 17 27 1009.6 1009.6 0.0
24/02:30pm 29.2 29.1 25.2 79 2.8 SE 35 50 19 27 1009.5 1009.5 0.0
24/02:00pm 29.1 30.0 25.3 80 2.7 SE 30 44 16 24 1009.8 1009.8 0.0
24/01:30pm 28.9 28.3 24.9 79 2.8 SE 37 48 20 26 1010.1 1010.1 0.0
24/01:19pm 29.0 29.1 24.8 78 2.9 SE 33 54 18 29 1010.3 1010.3 0.0
24/01:00pm 29.3 28.9 24.6 76 3.3 ESE 35 50 19 27 1010.4 1010.4 0.0
24/12:30pm 29.2 29.0 25.0 78 2.9 ESE 35 50 19 27 1010.8 1010.8 0.0
24/12:20pm 29.3 29.7 25.1 78 2.9 SE 32 50 17 27 1011.1 1011.1 0.0
24/12:00pm 29.1 29.1 24.7 77 3.1 ESE 33 46 18 25 1011.3 1011.3 0.0
24/11:30am 29.1 28.1 24.9 78 2.9 ESE 39 48 21 26 1011.5 1011.5 0.0
24/11:00am 28.8 28.7 24.6 78 2.9 SE 33 48 18 26 1011.7 1011.7 0.0
24/10:41am 28.5 28.5 24.7 80 2.7 SE 33 46 18 25 1012.0 1012.0 0.0
24/10:30am 27.9 28.3 24.5 82 2.4 SE 30 41 16 22 1012.2 1012.2 0.0
24/10:00am 27.3 27.7 24.4 84 2.0 SE 30 43 16 23 1012.4 1012.4 0.0
24/09:47am 27.6 28.4 24.4 83 2.2 SE 28 39 15 21 1012.4 1012.4 0.0
24/09:30am 26.7 28.0 24.0 85 1.9 SE 24 41 13 22 1012.4 1012.4 0.0
24/09:00am 26.7 28.4 24.0 85 1.9 SSE 22 33 12 18 1012.1 1012.1 1.0
24/08:30am 26.0 28.1 23.7 87 1.6 SSE 19 28 10 15 1012.0 1012.0 1.0
24/08:00am 25.8 27.7 23.7 88 1.4 SSE 20 32 11 17 1011.9 1011.9 1.0
24/07:30am 25.9 27.6 23.4 86 1.7 SE 20 30 11 16 1011.5 1011.5 1.0
24/07:14am 25.6 27.7 23.7 89 1.3 SSE 19 28 10 15 1011.3 1011.3 1.0
24/07:00am 25.4 27.4 23.6 90 1.2 SSE 19 28 10 15 1011.3 1011.3 1.0
24/06:30am 25.3 27.2 23.7 91 1.1 SSE 20 32 11 17 1010.9 1010.9 1.0
24/06:18am 25.2 27.3 23.8 92 1.0 SSE 19 28 10 15 1010.8 1010.8 1.0
24/06:12am 25.2 27.1 23.8 92 1.0 SSE 20 33 11 18 1010.8 1010.8 1.0
24/06:10am 25.2 27.1 23.8 92 1.0 SSE 20 33 11 18 1010.8 1010.8 1.0
24/06:00am 25.1 27.0 23.7 92 1.0 SSE 20 32 11 17 1010.9 1010.9 1.0
24/05:57am 25.2 27.3 23.8 92 1.0 SSE 19 30 10 16 1010.9 1010.9 1.0
24/05:52am 25.1 27.5 23.7 92 1.0 SSE 17 26 9 14 1010.8 1010.8 1.0
24/05:49am 25.1 27.7 23.9 93 0.8 SSE 17 26 9 14 1010.7 1010.7 1.0
24/05:30am 25.0 27.1 23.8 93 0.8 SSE 19 26 10 14 1010.7 1010.7 1.0
24/05:00am 25.2 27.7 23.8 92 1.0 SSE 17 24 9 13 1010.7 1010.7 1.0
24/04:30am 24.8 27.2 23.6 93 0.8 SSE 17 26 9 14 1010.6 1010.6 1.0
24/04:29am 24.8 27.2 23.6 93 0.8 SSE 17 26 9 14 1010.6 1010.6 1.0
24/04:00am 24.9 28.2 23.9 94 0.7 SSE 13 19 7 10 1011.0 1011.0 1.0
24/03:54am 24.9 27.7 23.7 93 0.8 SSE 15 24 8 13 1011.1 1011.1 1.0
24/03:35am 25.1 27.0 23.5 91 1.1 SSE 19 28 10 15 1011.3 1011.3 1.0
24/03:30am 25.3 27.6 23.5 90 1.2 SSE 17 28 9 15 1011.3 1011.3 1.0
24/03:00am 24.9 27.1 23.3 91 1.1 SSE 17 22 9 12 1011.5 1011.5 1.0
24/02:30am 24.7 26.9 23.3 92 1.0 SSE 17 22 9 12 1011.7 1011.7 1.0
24/02:26am 24.7 27.0 23.5 93 0.8 SSE 17 24 9 13 1011.8 1011.8 1.0
24/02:05am 25.1 25.9 23.2 89 1.3 SE 24 35 13 19 1012.1 1012.1 1.0
24/02:00am 25.6 27.2 23.3 87 1.6 SSE 20 33 11 18 1012.0 1012.0 0.8
24/01:30am 25.9 27.3 22.8 83 2.1 SSE 20 32 11 17 1011.9 1011.9 0.8
24/01:00am 25.7 27.5 23.2 86 1.7 SE 19 30 10 16 1012.1 1012.1 0.8
24/12:30am 25.7 26.9 23.2 86 1.7 SSE 22 32 12 17 1012.2 1012.2 0.8
24/12:00am 25.7 26.9 23.2 86 1.7 SSE 22 33 12 18 1012.3 1012.3 0.8
 
Date/Time
EST
Temp
°C
App
Temp
°C
Dew
Point
°C
Rel
Hum
%
Delta-T
°C
Wind Press
QNH
hPa
Press
MSL
hPa
Rain since
9am
mm
Dir  Spd
km/h
Gust
km/h
Spd
kts
Gust
kts
23/11:30pm 25.5 26.8 23.4 88 1.4 SSE 22 32 12 17 1012.4 1012.4 0.8
23/11:00pm 25.2 26.5 23.4 90 1.2 SSE 22 33 12 18 1012.5 1012.5 0.8
23/10:30pm 24.8 26.1 23.4 92 1.0 SSE 22 32 12 17 1012.7 1012.7 0.8
23/10:23pm 24.8 26.1 23.4 92 1.0 SSE 22 35 12 19 1012.7 1012.7 0.8
23/10:14pm 24.7 26.2 23.7 94 0.7 SSE 22 35 12 19 1012.8 1012.8 0.8
23/10:00pm 24.6 25.7 23.6 94 0.7 SE 24 33 13 18 1012.8 1012.8 0.8
23/09:44pm 24.8 25.1 23.0 90 1.2 SE 26 39 14 21 1012.8 1012.8 0.8
23/09:41pm 25.0 25.4 23.1 89 1.3 SE 26 39 14 21 1012.8 1012.8 0.8
23/09:30pm 25.4 26.5 23.1 87 1.6 SSE 22 32 12 17 1012.6 1012.6 0.6
23/09:00pm 25.3 26.5 23.2 88 1.4 SSE 22 32 12 17 1012.4 1012.4 0.6
23/08:30pm 25.4 26.4 23.5 89 1.3 SSE 24 32 13 17 1012.2 1012.2 0.6
23/08:28pm 25.3 26.6 23.4 89 1.3 SSE 22 32 12 17 1012.2 1012.2 0.6
23/08:17pm 25.2 25.8 23.4 90 1.2 SSE 26 39 14 21 1011.8 1011.8 0.6
23/08:15pm 25.2 25.8 23.4 90 1.2 SE 26 39 14 21 1011.8 1011.8 0.6
23/08:05pm 25.2 26.1 23.4 90 1.2 SE 24 39 13 21 1011.8 1011.8 0.6
23/08:00pm 25.3 26.3 23.5 90 1.2 SE 24 35 13 19 1011.7 1011.7 0.6
23/07:34pm 25.2 26.6 23.6 91 1.1 SSE 22 33 12 18 1011.2 1011.2 0.6
23/07:30pm 25.1 26.6 23.7 92 1.0 SSE 22 30 12 16 1011.2 1011.2 0.6
23/07:17pm 25.3 26.8 23.7 91 1.1 SSE 22 33 12 18 1011.0 1011.0 0.6
23/07:00pm 25.7 27.1 23.6 88 1.4 SSE 22 37 12 20 1010.8 1010.8 0.6
23/06:30pm 25.7 26.8 23.6 88 1.4 SE 24 35 13 19 1010.5 1010.5 0.6
23/06:25pm 25.6 26.7 23.7 89 1.3 SE 24 33 13 18 1010.5 1010.5 0.6
23/06:07pm 25.8 25.5 23.8 89 1.4 SE 32 50 17 27 1010.2 1010.2 0.6
23/06:04pm 26.6 26.5 23.5 83 2.1 SE 30 50 16 27 1010.1 1010.1 0.6
23/06:00pm 26.9 27.3 23.8 83 2.1 SE 28 44 15 24 1010.0 1010.0 0.6
23/05:30pm 26.5 27.5 24.2 87 1.6 SE 26 35 14 19 1009.8 1009.8 0.6
23/05:00pm 27.2 27.7 23.9 82 2.3 SE 28 39 15 21 1009.6 1009.6 0.6
23/04:30pm 27.7 28.0 24.3 82 2.4 SE 30 43 16 23 1009.4 1009.4 0.6
23/04:00pm 27.2 27.9 24.3 84 2.0 ESE 28 44 15 24 1009.3 1009.3 0.6
23/03:43pm 27.7 26.5 23.9 80 2.6 SE 37 59 20 32 1009.3 1009.3 0.6
23/03:30pm 28.7 28.6 24.3 77 3.1 SE 32 41 17 22 1009.3 1009.3 0.6
23/03:00pm 28.4 28.2 24.4 79 2.8 SE 33 46 18 25 1009.4 1009.4 0.6
23/02:30pm 28.2 27.4 24.0 78 2.9 ESE 35 54 19 29 1009.8 1009.8 0.6
23/02:00pm 29.2 28.7 24.5 76 3.3 ESE 35 48 19 26 1009.9 1009.9 0.6
23/01:50pm 29.3 29.0 24.8 77 3.1 ESE 35 54 19 29 1010.0 1010.0 0.6
23/01:30pm 28.8 27.9 24.4 77 3.1 ESE 37 50 20 27 1010.1 1010.1 0.6
23/01:00pm 28.6 27.7 24.4 78 2.9 ESE 37 52 20 28 1010.4 1010.4 0.6
23/12:41pm 28.4 27.8 24.4 79 2.8 ESE 35 54 19 29 1010.7 1010.7 0.6
23/12:30pm 28.9 29.1 25.1 80 2.7 ESE 33 48 18 26 1010.7 1010.7 0.6
23/12:01pm 27.5 27.8 24.9 86 1.8 ESE 32 43 17 23 1011.2 1011.2 0.6
23/12:00pm 27.4 27.8 25.0 87 1.7 ESE 32 43 17 23 1011.2 1011.2 0.6
23/11:41am 26.5 26.6 24.5 89 1.4 SE 32 52 17 28 1011.8 1011.8 0.6
23/11:37am 28.4 28.9 24.6 80 2.6 SE 30 52 16 28 1011.6 1011.6 0.6
23/11:30am 28.6 29.1 24.6 79 2.8 ESE 30 44 16 24 1011.5 1011.5 0.6
23/11:00am 27.3 28.1 25.7 91 1.1 SE 32 44 17 24 1011.9 1011.9 0.4
23/10:30am 28.1 28.7 24.7 82 2.4 ESE 30 44 16 24 1012.1 1012.1 0.4
23/10:00am 27.5 29.2 25.3 88 1.5 SE 26 37 14 20 1012.4 1012.4 0.4
23/09:30am 26.2 28.6 25.2 94 0.7 ESE 22 30 12 16 1012.5 1012.5 0.4
23/09:28am 25.9 28.1 24.9 94 0.7 ESE 22 30 12 16 1012.5 1012.5 0.4
23/09:00am 25.4 28.1 24.2 93 0.8 ESE 17 35 9 19 1012.6 1012.6 4.0
23/08:54am 26.0 29.1 24.8 93 0.8 SE 17 26 9 14 1012.3 1012.3 3.0
23/08:31am 25.7 28.7 24.7 94 0.7 SE 17 20 9 11 1012.2 1012.2 2.8
23/08:30am 25.7 28.7 24.7 94 0.7 SE 17 20 9 11 1012.1 1012.1 2.8
23/08:05am 25.7 28.0 24.1 91 1.1 SE 19 26 10 14 1011.8 1011.8 1.6
23/08:04am 25.8 28.2 24.2 91 1.1 SE 19 26 10 14 1011.8 1011.8 1.4
23/08:00am 25.9 28.3 24.3 91 1.1 SE 19 26 10 14 1011.6 1011.6 1.0
23/07:47am 26.0 27.6 23.9 88 1.4 SE 22 35 12 19 1011.5 1011.5 1.0
23/07:30am 26.7 29.4 24.2 86 1.7 SE 17 22 9 12 1011.1 1011.1 1.0
23/07:00am 26.5 29.1 24.0 86 1.7 SE 17 26 9 14 1010.7 1010.7 1.0
23/06:30am 26.4 28.3 23.7 85 1.9 SE 20 30 11 16 1010.5 1010.5 1.0
23/06:00am 26.4 28.2 23.5 84 2.0 SE 20 26 11 14 1010.3 1010.3 1.0
23/05:30am 26.5 28.3 23.6 84 2.0 SE 20 30 11 16 1010.2 1010.2 1.0
23/05:00am 26.4 28.8 23.7 85 1.9 SE 17 24 9 13 1010.2 1010.2 1.0
23/04:30am 26.3 27.7 23.6 85 1.8 SE 22 32 12 17 1010.2 1010.2 1.0
23/04:00am 26.5 28.3 23.6 84 2.0 SE 20 32 11 17 1010.3 1010.3 1.0
23/03:30am 26.6 28.5 23.7 84 2.0 SE 20 30 11 16 1010.5 1010.5 1.0
23/03:00am 26.5 28.6 23.8 85 1.9 SE 19 28 10 15 1010.7 1010.7 1.0
23/02:30am 26.5 27.9 23.6 84 2.0 SE 22 32 12 17 1010.7 1010.7 1.0
23/02:00am 26.2 29.3 24.1 88 1.4 SE 15 24 8 13 1010.9 1010.9 1.0
23/01:30am 26.3 28.2 23.8 86 1.7 SE 20 30 11 16 1011.1 1011.1 1.0
23/01:00am 25.8 28.6 23.7 88 1.4 SE 15 28 8 15 1011.2 1011.2 1.0
23/12:30am 25.5 27.1 22.8 85 1.8 SE 19 30 10 16 1011.5 1011.5 1.0
23/12:00am 25.2 26.3 22.3 84 1.9 SE 20 41 11 22 1011.7 1011.7 1.0
 
Date/Time
EST
Temp
°C
App
Temp
°C
Dew
Point
°C
Rel
Hum
%
Delta-T
°C
Wind Press
QNH
hPa
Press
MSL
hPa
Rain since
9am
mm
Dir  Spd
km/h
Gust
km/h
Spd
kts
Gust
kts
22/11:32pm 25.3 27.4 23.7 91 1.1 SE 19 28 10 15 1011.7 1011.7 1.0
22/11:30pm 25.3 27.5 23.9 92 1.0 SE 19 28 10 15 1011.7 1011.7 1.0
22/11:00pm 25.9 26.8 23.9 89 1.4 SE 26 39 14 21 1011.7 1011.7 0.0
22/10:58pm 26.0 26.9 23.9 88 1.4 SE 26 39 14 21 1011.8 1011.8 0.0
22/10:30pm 26.4 28.4 23.9 86 1.7 SE 20 28 11 15 1011.9 1011.9 0.0
22/10:00pm 26.8 28.3 23.7 83 2.1 SE 22 37 12 20 1012.1 1012.1 0.0
22/09:30pm 26.8 28.2 23.5 82 2.3 SE 22 33 12 18 1012.1 1012.1 0.0
22/09:00pm 26.7 28.3 23.8 84 2.0 SE 22 33 12 18 1012.0 1012.0 0.0
22/08:30pm 26.5 27.8 23.4 83 2.1 SE 22 33 12 18 1011.8 1011.8 0.0
22/08:00pm 26.0 27.4 23.5 86 1.7 SE 22 35 12 19 1011.3 1011.3 0.0
22/07:48pm 25.9 27.7 23.6 87 1.6 SE 20 30 11 16 1011.2 1011.2 0.0
22/07:33pm 25.8 27.7 23.7 88 1.4 SE 20 30 11 16 1011.1 1011.1 0.0
22/07:30pm 26.1 27.5 23.6 86 1.7 SSE 22 32 12 17 1011.1 1011.1 0.0
22/07:00pm 26.7 26.8 23.2 81 2.4 SE 28 43 15 23 1010.5 1010.5 0.0
22/06:30pm 26.5 26.5 23.0 81 2.4 SE 28 43 15 23 1010.2 1010.2 0.0
22/06:09pm 26.7 26.5 22.8 79 2.6 SE 28 46 15 25 1010.1 1010.1 0.0
22/06:00pm 26.9 26.6 23.2 80 2.5 SE 30 41 16 22 1009.9 1009.9 0.0
22/05:30pm 27.1 25.7 22.9 78 2.9 SE 35 48 19 26 1009.8 1009.8 0.0
22/05:08pm 27.6 27.4 23.4 78 2.9 SE 30 48 16 26 1009.6 1009.6 0.0
22/05:00pm 27.8 26.9 23.2 76 3.1 SE 33 46 18 25 1009.6 1009.6 0.0
22/04:32pm 28.1 27.7 23.0 74 3.5 SE 30 50 16 27 1009.4 1009.4 0.0
22/04:30pm 28.3 28.0 23.2 74 3.5 SE 30 41 16 22 1009.4 1009.4 0.0
22/04:00pm 27.9 27.1 23.3 76 3.2 SE 33 50 18 27 1009.2 1009.2 0.0
22/03:39pm 29.0 28.6 24.1 75 3.4 SE 33 52 18 28 1009.3 1009.3 0.0
22/03:30pm 27.9 27.2 23.5 77 3.0 SE 33 44 18 24 1009.3 1009.3 0.0
22/03:00pm 29.4 29.5 24.0 72 3.7 SE 30 43 16 23 1009.5 1009.5 0.0
22/02:30pm 29.4 29.4 23.8 72 3.9 ESE 30 41 16 22 1009.8 1009.8 0.0
22/02:00pm 29.2 28.4 23.4 71 4.0 ESE 33 44 18 24 1010.0 1010.0 0.0
22/01:30pm 29.3 28.9 23.7 72 3.9 ESE 32 43 17 23 1010.2 1010.2 0.0
22/01:00pm 29.2 28.5 23.6 72 3.9 ESE 33 46 18 25 1010.7 1010.7 0.0

Other formats

Comma delimited format used in spreadsheet applications
http://www.bom.gov.au/fwo/IDQ60801/IDQ60801.94174.axf

JavaScript Object Notation format (JSON) in row-major order
http://www.bom.gov.au/fwo/IDQ60801/IDQ60801.94174.json

Data quality

Most of these data are generated automatically and are frequently updated. Quality checks on data are not normally performed. It is possible for incorrect values to appear. Refer to information at About Latest Weather Observations and please check the disclaimer before using these data.